Palisade, South Dakota
Current Conditions -  °F | °C
As of 2:56 AM on Wednesday 26 Nov 2014 (Local Time) from KFSD Reporting Station
Light Snow Light Snow  
Wind Chill: 24°   Ceiling: 500
Heat Index: 30°   Visibility: 3mi
Dew Point: 28°   Wind: 6mph
Humidity: 92%   Direction: 40°NE
Pressure: 29.84"   Gusts: NA
Location:  43.7606°N, 96.5516°W
Report Text: KFSD 260856Z AUTO 04005KT 3SM -SN BR OVC005 M01/M02 A2984 RMK AO2 SLP122 P0000 60002 T10111022 53010
Loading
Personal Weather Stations






























Interactive Weather Map New forecast layout! Learn more

10-Day Weather Forecast

Advertisements
Track Severe Weather on mobile